createdAt,value
2022-11-08T00:02:42.198Z,100.00
2022-11-08T00:08:38.141Z,100.00
2022-11-08T00:14:15.103Z,100.00
2022-11-08T00:19:52.101Z,100.00
2022-11-08T00:25:30.129Z,100.00
2022-11-08T00:31:07.117Z,100.00
2022-11-08T00:36:44.086Z,100.00
2022-11-08T00:42:22.091Z,100.00
2022-11-08T00:47:59.097Z,100.00
2022-11-08T00:53:36.082Z,100.00
2022-11-08T00:59:15.094Z,100.00
2022-11-08T01:04:52.098Z,100.00
2022-11-08T01:10:29.141Z,100.00
2022-11-08T01:16:07.075Z,100.00
2022-11-08T01:21:44.079Z,100.00
2022-11-08T01:27:21.102Z,100.00
2022-11-08T01:32:59.083Z,100.00
2022-11-08T01:38:36.091Z,100.00
2022-11-08T01:44:14.094Z,100.00
2022-11-08T01:49:59.097Z,100.00
2022-11-08T01:55:41.061Z,100.00
2022-11-08T02:01:19.168Z,100.00
2022-11-08T02:06:59.080Z,100.00
2022-11-08T02:12:30.067Z,100.00
2022-11-08T02:18:07.097Z,100.00
2022-11-08T02:23:58.081Z,100.00
2022-11-08T02:29:44.119Z,100.00
2022-11-08T02:35:25.120Z,100.00
2022-11-08T02:41:06.047Z,100.00
2022-11-08T02:46:43.059Z,100.00
2022-11-08T02:52:20.142Z,100.00
2022-11-08T02:57:58.073Z,100.00
2022-11-08T03:04:36.063Z,100.00
2022-11-08T03:10:06.093Z,100.00
2022-11-08T03:16:02.071Z,100.00
2022-11-08T03:21:39.067Z,100.00
2022-11-08T03:27:16.085Z,100.00
2022-11-08T03:32:54.052Z,100.00
2022-11-08T03:38:31.054Z,100.00
2022-11-08T03:44:08.059Z,100.00
2022-11-08T03:49:46.060Z,100.00
2022-11-08T03:55:25.055Z,100.00
2022-11-08T04:01:02.105Z,100.00
2022-11-08T04:06:40.073Z,100.00
2022-11-08T04:12:35.069Z,100.00
2022-11-08T04:18:30.043Z,100.00
2022-11-08T04:24:08.073Z,100.00
2022-11-08T04:29:45.054Z,100.00
2022-11-08T04:35:22.059Z,100.00
2022-11-08T04:41:01.055Z,100.00
2022-11-08T04:46:40.047Z,100.00
2022-11-08T04:52:17.057Z,100.00
2022-11-08T04:57:55.037Z,100.00
2022-11-08T05:03:32.037Z,100.00
2022-11-08T05:09:11.051Z,100.00
2022-11-08T05:14:49.045Z,100.00
2022-11-08T05:20:43.058Z,100.00
2022-11-08T05:26:20.050Z,100.00
2022-11-08T05:31:58.053Z,100.00
2022-11-08T05:37:35.082Z,100.00
2022-11-08T05:43:12.043Z,100.00
2022-11-08T05:48:50.081Z,100.00
2022-11-08T05:54:27.057Z,100.00
2022-11-08T06:00:04.037Z,100.00
2022-11-08T06:05:42.053Z,100.00
2022-11-08T06:11:20.050Z,100.00
2022-11-08T06:16:57.041Z,100.00
2022-11-08T06:22:35.019Z,100.00
2022-11-08T06:28:14.024Z,100.00
2022-11-08T06:33:51.031Z,100.00
2022-11-08T06:39:29.029Z,100.00
2022-11-08T06:45:06.024Z,100.00
2022-11-08T06:50:44.070Z,100.00
2022-11-08T06:56:23.164Z,96.96
2022-11-08T07:02:00.311Z,98.57
2022-11-08T07:07:37.020Z,93.35
2022-11-08T07:13:17.377Z,82.17
2022-11-08T07:18:54.044Z,77.94
2022-11-08T07:24:31.043Z,72.25
2022-11-08T07:30:10.028Z,73.17
2022-11-08T07:35:47.036Z,73.76
2022-11-08T07:41:24.036Z,75.53
2022-11-08T07:47:02.053Z,77.01
2022-11-08T07:52:39.038Z,76.82
2022-11-08T07:58:16.006Z,78.32
2022-11-08T08:03:54.025Z,78.76
2022-11-08T08:09:31.016Z,80.01
2022-11-08T08:15:08.016Z,76.07
2022-11-08T08:20:47.073Z,76.10
2022-11-08T08:26:24.043Z,77.31
2022-11-08T08:32:01.014Z,74.86
2022-11-08T08:37:39.016Z,75.50
2022-11-08T08:43:17.359Z,77.25
2022-11-08T08:48:54.041Z,77.93
2022-11-08T08:54:32.021Z,78.26
2022-11-08T09:06:06.067Z,76.87
2022-11-08T09:11:44.005Z,76.12
2022-11-08T09:17:21.020Z,74.52
2022-11-08T09:22:58.009Z,74.38
2022-11-08T09:28:36.013Z,73.43
2022-11-08T09:34:15.042Z,72.33
2022-11-08T09:39:54.045Z,69.76
2022-11-08T09:45:39.019Z,68.20
2022-11-08T09:51:15.010Z,69.16
2022-11-08T09:56:53.038Z,71.03
2022-11-08T10:02:34.005Z,71.78
2022-11-08T10:08:22.029Z,70.25
2022-11-08T10:14:11.000Z,70.37
2022-11-08T10:20:17.016Z,70.46
2022-11-08T10:25:59.022Z,68.85
2022-11-08T10:31:36.013Z,68.33
2022-11-08T10:37:19.034Z,66.20
2022-11-08T10:43:04.354Z,65.40
2022-11-08T10:48:44.980Z,61.97
2022-11-08T10:54:16.002Z,60.34
2022-11-08T10:59:53.010Z,59.56
2022-11-08T11:05:42.997Z,55.95
2022-11-08T11:11:38.009Z,54.55
2022-11-08T11:17:18.080Z,51.80
2022-11-08T11:23:01.045Z,48.73
2022-11-08T11:28:40.044Z,48.51
2022-11-08T11:34:42.020Z,47.89
2022-11-08T11:40:30.995Z,49.92
2022-11-08T11:46:16.986Z,49.47
2022-11-08T11:51:53.989Z,50.75
2022-11-08T11:57:38.010Z,51.08
2022-11-08T12:03:44.996Z,49.98
2022-11-08T12:09:49.010Z,48.68
2022-11-08T12:15:35.004Z,48.50
2022-11-08T12:21:22.046Z,49.61
2022-11-08T12:27:06.988Z,49.14
2022-11-08T12:32:58.987Z,49.80
2022-11-08T12:38:46.986Z,49.95
2022-11-08T12:44:56.008Z,49.78
2022-11-08T12:50:48.000Z,49.42
2022-11-08T12:56:30.002Z,49.75
2022-11-08T13:02:08.017Z,50.06
2022-11-08T13:07:59.019Z,50.32
2022-11-08T13:13:46.008Z,52.09
2022-11-08T13:19:41.004Z,51.84
2022-11-08T13:25:21.992Z,51.65
2022-11-08T13:31:03.984Z,52.38
2022-11-08T13:36:51.020Z,52.69
2022-11-08T13:43:11.018Z,52.82
2022-11-08T13:49:19.987Z,52.80
2022-11-08T13:55:06.990Z,53.41
2022-11-08T14:01:00.033Z,51.45
2022-11-08T14:06:46.020Z,49.53
2022-11-08T14:12:29.009Z,49.17
2022-11-08T14:18:11.010Z,48.36
2022-11-08T14:23:51.986Z,46.78
2022-11-08T14:29:34.971Z,48.67
2022-11-08T14:35:28.995Z,52.02
2022-11-08T14:41:09.018Z,52.95
2022-11-08T14:46:50.005Z,54.27
2022-11-08T14:52:23.106Z,56.15
2022-11-08T14:58:01.039Z,57.02
2022-11-08T15:03:42.990Z,57.97
2022-11-08T15:09:21.997Z,59.29
2022-11-08T15:15:02.983Z,59.88
2022-11-08T15:20:41.013Z,61.63
2022-11-08T15:26:18.298Z,62.72
2022-11-08T15:32:01.446Z,64.13
2022-11-08T15:37:45.991Z,65.83
2022-11-08T15:43:50.002Z,67.61
2022-11-08T15:49:30.986Z,68.78
2022-11-08T15:55:08.981Z,69.94
2022-11-08T16:00:43.084Z,70.96
2022-11-08T16:06:20.064Z,71.25
2022-11-08T16:11:59.003Z,71.96
2022-11-08T16:17:35.997Z,71.58
2022-11-08T16:23:14.985Z,71.80
2022-11-08T16:28:54.000Z,73.16
2022-11-08T16:34:35.981Z,72.99
2022-11-08T16:40:13.000Z,74.17
2022-11-08T16:46:05.260Z,75.47
2022-11-08T16:51:50.100Z,76.29
2022-11-08T16:57:34.296Z,77.09
2022-11-08T17:03:12.962Z,77.99
2022-11-08T17:08:49.984Z,80.39
2022-11-08T17:14:26.990Z,80.92
2022-11-08T17:20:05.009Z,80.61
2022-11-08T17:25:41.999Z,80.99
2022-11-08T17:31:23.999Z,82.27
2022-11-08T17:37:01.975Z,82.50
2022-11-08T17:42:39.970Z,82.39
2022-11-08T17:48:17.993Z,84.95
2022-11-08T17:53:56.991Z,85.12
2022-11-08T17:59:32.070Z,85.76
2022-11-08T18:05:14.189Z,86.18
2022-11-08T18:10:51.972Z,87.17
2022-11-08T18:16:30.981Z,87.79
2022-11-08T18:22:10.963Z,87.49
2022-11-08T18:27:49.024Z,89.73
2022-11-08T18:33:25.991Z,88.17
2022-11-08T18:39:03.997Z,88.29
2022-11-08T18:44:41.953Z,88.13
2022-11-08T18:50:19.956Z,87.97
2022-11-08T18:55:58.953Z,89.50
2022-11-08T19:01:37.100Z,90.40
2022-11-08T19:07:14.001Z,90.14
2022-11-08T19:12:50.961Z,91.55
2022-11-08T19:18:28.971Z,91.00
2022-11-08T19:24:06.972Z,91.71
2022-11-08T19:29:43.943Z,92.57
2022-11-08T19:35:22.981Z,94.66
2022-11-08T19:40:59.972Z,96.45
2022-11-08T19:46:41.124Z,98.72
2022-11-08T19:52:20.159Z,99.34
2022-11-08T19:57:57.145Z,99.67
2022-11-08T20:03:34.141Z,99.18
2022-11-08T20:09:13.106Z,98.50
2022-11-08T20:14:50.074Z,98.99
2022-11-08T20:20:26.952Z,99.67
2022-11-08T20:26:04.957Z,99.57
2022-11-08T20:31:42.494Z,99.96
2022-11-08T20:37:20.971Z,100.00
2022-11-08T20:42:58.960Z,100.00
2022-11-08T20:48:35.980Z,100.00
2022-11-08T20:54:13.947Z,100.00
2022-11-08T20:59:51.984Z,100.00
2022-11-08T21:05:28.964Z,100.00
2022-11-08T21:11:08.986Z,100.00
2022-11-08T21:17:15.113Z,100.00
2022-11-08T21:22:44.972Z,100.00
2022-11-08T21:28:22.213Z,100.00
2022-11-08T21:34:01.958Z,100.00
2022-11-08T21:39:38.927Z,100.00
2022-11-08T21:45:15.931Z,100.00
2022-11-08T21:50:54.929Z,100.00
2022-11-08T21:56:32.056Z,100.00
2022-11-08T22:02:20.791Z,100.00
2022-11-08T22:07:58.977Z,100.00
2022-11-08T22:13:40.005Z,100.00
2022-11-08T22:19:16.959Z,100.00
2022-11-08T22:24:56.940Z,100.00
2022-11-08T22:30:33.955Z,100.00
2022-11-08T22:36:10.952Z,100.00
2022-11-08T22:41:48.971Z,100.00
2022-11-08T22:47:26.005Z,100.00
2022-11-08T22:53:02.968Z,100.00
2022-11-08T22:58:41.975Z,100.00
2022-11-08T23:04:19.955Z,100.00
2022-11-08T23:09:56.952Z,100.00
2022-11-08T23:15:54.962Z,100.00
2022-11-08T23:21:48.960Z,100.00
2022-11-08T23:27:44.961Z,100.00
2022-11-08T23:33:23.078Z,100.00
2022-11-08T23:38:59.954Z,100.00
2022-11-08T23:44:36.961Z,100.00
2022-11-08T23:50:14.954Z,100.00
2022-11-08T23:55:51.949Z,100.00
